Date,TemperatureHighF,TemperatureAvgF,TemperatureLowF,DewpointHighF,DewpointAvgF,DewpointLowF,HumidityHigh,HumidityAvg,HumidityLow,PressureMaxIn,PressureMinIn,WindSpeedMaxMPH,WindSpeedAvgMPH,GustSpeedMaxMPH,PrecipitationSumIn
2013-4-1,48,37,26,-100,-100,-100,0,0,100,0.00,40.00,0,-999,0,0.00
2013-4-2,39,30,21,-100,-100,-100,0,0,100,0.00,40.00,0,-999,0,0.01
2013-4-3,44,31,21,-100,-100,-100,0,0,100,0.00,40.00,0,-999,0,0.01
2013-4-4,51,34,22,-100,-100,-100,0,0,100,0.00,40.00,0,-999,0,0.00
2013-4-5,49,37,29,-100,-100,-100,0,0,100,0.00,40.00,0,-999,0,0.00
2013-4-6,44,34,27,-100,-100,-100,0,0,100,0.00,40.00,0,-999,0,0.01
2013-4-7,41,33,25,-100,-100,-100,0,0,100,0.00,40.00,0,-999,0,0.01
2013-4-8,45,36,29,-100,-100,-100,0,0,100,0.00,40.00,0,-999,0,0.00
2013-4-9,35,28,15,-100,-100,-100,0,0,100,0.00,40.00,0,-999,0,0.01
2013-4-10,29,18,8,-100,-100,-100,0,0,100,0.00,40.00,0,-999,0,0.00
2013-4-11,38,28,16,-100,-100,-100,0,0,100,0.00,40.00,0,-999,0,0.01
2013-4-12,44,31,23,-100,-100,-100,0,0,100,0.00,40.00,0,-999,0,0.01
2013-4-13,44,33,21,-100,-100,-100,0,0,100,0.00,40.00,0,-999,0,0.01
2013-4-14,32,27,20,-100,-100,-100,0,0,100,0.00,40.00,0,-999,0,0.04
2013-4-15,35,28,21,-100,-100,-100,0,0,100,0.00,40.00,0,-999,0,0.04
2013-4-16,42,32,22,-100,-100,-100,0,0,100,0.00,40.00,0,-999,0,0.02
2013-4-17,29,23,11,-100,-100,-100,0,0,100,0.00,40.00,0,-999,0,0.01
2013-4-18,20,11,3,-100,-100,-100,0,0,100,0.00,40.00,0,-999,0,0.01
2013-4-19,36,21,4,-100,-100,-100,0,0,100,0.00,40.00,0,-999,0,0.01
2013-4-20,38,29,21,-100,-100,-100,0,0,100,0.00,40.00,0,-999,0,0.01
2013-4-21,41,32,23,-100,-100,-100,0,0,100,0.00,40.00,0,-999,0,0.02
2013-4-22,40,33,28,-100,-100,-100,0,0,100,0.00,40.00,0,-999,0,0.01
2013-4-23,33,26,21,-100,-100,-100,0,0,100,0.00,40.00,0,-999,0,0.02
2013-4-24,39,30,16,-100,-100,-100,0,0,100,0.00,40.00,0,-999,0,0.00
2013-4-25,49,32,13,-100,-100,-100,0,0,100,0.00,40.00,0,-999,0,0.00
2013-4-26,46,36,24,-100,-100,-100,0,0,100,0.00,40.00,0,-999,0,0.00
2013-4-27,53,36,22,-100,-100,-100,0,0,100,0.00,40.00,0,-999,0,0.00
2013-4-28,56,40,26,-100,-100,-100,0,0,100,0.00,40.00,0,-999,0,0.00
2013-4-29,57,46,31,-100,-100,-100,0,0,100,0.00,40.00,0,-999,0,0.00
2013-4-30,56,44,33,-100,-100,-100,0,0,100,0.00,40.00,0,-999,0,0.00